ΑΕΡΟΝΑΥΤΙΛΙΑ

ΚΩΔΙΚΕΣ ΕΛΛΗΝΙΚΩΝ ΑΕΡΟΔΡΟΜΙΩΝ

LGAV 150720Z 02015KT CAVOK 26/07 Q1015 NOSIG=

ΚΩΔΙΚΕΣ ΕΥΡΩΠΑΪΚΩΝ ΑΕΡΟΔΡΟΜΙΩΝ

TAF LGAV 150500Z 1506/1606 33008KT 9999 FEW025 BECMG 1506/1508 03016KT BECMG 1520/1522 VRB05KT=